Terminal Aerodrome Forecast
Issued by NWS Lake Charles, LA

Home | Current Version | Previous Version | Text Only | Print | Product List | Glossary On
Versions: 1 2 3 4 5 6 7 8 9 10 11 12 13 14 15 16 17 18 19 20 21
454
FTUS44 KLCH 240520
TAFLFT
TAF
KLFT 240520Z 2406/2506 30008KT P6SM VCSH SCT035 BKN060
      TEMPO 2406/2409 VRB12G20KT 5SM -SHRA BR BKN035
     FM240900 32010KT P6SM SCT030 BKN100
     FM241400 32015G21KT P6SM SKC
     FM250100 30008KT P6SM SKC=

USA.gov is the U.S. government's official web portal to all federal, state and local government web resources and services.